Time;durP1;ratioP1;P1;durP2;ratioP2;P2;SDS_P1;SDS_P2;PMS_P1;PMS_P2;Temp;Humidity;BMP_temperature;BMP_pressure;BME280_temperature;BME280_humidity;BME280_pressure;Samples;Min_cycle;Max_cycle;Signal;HPM_P1;HPM_P2
2023/07/27 00:01:25;;;;;;;2.87;1.80;;;14.30;99.90;;;;;;5028925;28;20514;-64
2023/07/27 00:03:50;;;;;;;3.20;2.40;;;14.30;99.90;;;;;;5028943;28;20180;-63
2023/07/27 00:06:16;;;;;;;4.80;2.60;;;14.30;99.90;;;;;;5028979;28;20256;-63
2023/07/27 00:08:42;;;;;;;5.03;2.50;;;14.40;99.90;;;;;;5028750;28;20184;-64
2023/07/27 00:11:08;;;;;;;6.60;2.30;;;14.40;99.90;;;;;;5028590;28;20240;-63
2023/07/27 00:13:34;;;;;;;3.50;2.47;;;14.30;99.90;;;;;;5028656;28;20225;-63
2023/07/27 00:15:59;;;;;;;4.73;2.30;;;14.30;99.90;;;;;;5028430;28;20426;-63
2023/07/27 00:18:25;;;;;;;5.77;1.90;;;14.30;99.90;;;;;;5028601;28;20176;-63
2023/07/27 00:20:50;;;;;;;9.03;2.33;;;14.40;99.90;;;;;;5028510;28;20204;-63
2023/07/27 00:23:16;;;;;;;3.90;2.13;;;14.40;99.90;;;;;;5028618;28;20192;-63
2023/07/27 00:25:42;;;;;;;3.17;2.20;;;14.50;99.90;;;;;;5028602;28;20204;-63
2023/07/27 00:28:07;;;;;;;5.17;1.97;;;14.60;99.90;;;;;;5028633;28;20730;-63
2023/07/27 00:30:33;;;;;;;2.10;1.90;;;14.50;99.90;;;;;;5028413;28;20213;-63
2023/07/27 00:32:59;;;;;;;2.20;2.00;;;14.50;99.90;;;;;;5028383;28;20597;-64
2023/07/27 00:35:24;;;;;;;2.37;1.60;;;14.50;99.90;;;;;;5026864;28;20215;-63
2023/07/27 00:37:50;;;;;;;1.57;1.47;;;14.50;99.90;;;;;;5028335;28;20191;-64
2023/07/27 00:40:17;;;;;;;3.30;1.90;;;14.50;99.90;;;;;;5028288;28;20239;-63
2023/07/27 00:42:43;;;;;;;2.20;1.90;;;14.60;99.90;;;;;;5028458;28;20188;-63
2023/07/27 00:45:08;;;;;;;3.33;2.00;;;14.60;99.90;;;;;;5028461;28;20998;-63
2023/07/27 00:47:34;;;;;;;2.23;1.80;;;14.60;99.90;;;;;;5029436;28;20687;-63
2023/07/27 00:50:00;;;;;;;1.97;1.77;;;14.60;99.90;;;;;;5030837;28;20605;-63
2023/07/27 00:52:25;;;;;;;3.80;2.27;;;14.60;99.90;;;;;;5032325;28;20610;-63
2023/07/27 00:54:55;;;;;;;3.10;2.13;;;14.60;99.90;;;;;;5032433;28;20268;-63
2023/07/27 00:57:21;;;;;;;4.30;2.07;;;14.60;99.90;;;;;;5032364;28;20187;-63
2023/07/27 00:59:47;;;;;;;4.00;1.90;;;14.60;99.90;;;;;;5032236;28;20431;-63
2023/07/27 01:02:12;;;;;;;2.77;2.00;;;14.50;99.90;;;;;;5032407;28;20676;-63
2023/07/27 01:04:38;;;;;;;3.00;2.27;;;14.50;99.90;;;;;;5032123;28;20458;-64
2023/07/27 01:07:04;;;;;;;3.17;2.30;;;14.40;99.90;;;;;;5032417;28;20683;-63
2023/07/27 01:09:30;;;;;;;3.50;1.93;;;14.40;99.90;;;;;;5032569;28;20561;-63
2023/07/27 01:12:11;;;;;;;2.63;2.20;;;14.50;99.90;;;;;;5032720;28;20463;-63
2023/07/27 01:15:03;;;;;;;4.10;1.80;;;14.50;99.90;;;;;;5033025;28;20172;-63
2023/07/27 01:17:38;;;;;;;6.30;2.33;;;14.50;99.90;;;;;;5033095;28;20926;-63
2023/07/27 01:20:22;;;;;;;4.13;2.43;;;14.60;99.90;;;;;;5032886;28;20470;-63
2023/07/27 01:23:25;;;;;;;6.23;2.13;;;14.50;99.90;;;;;;5032818;28;20410;-63
2023/07/27 01:26:21;;;;;;;3.00;2.40;;;14.40;99.90;;;;;;5032434;28;20415;-63
2023/07/27 01:29:09;;;;;;;3.17;1.83;;;14.30;99.90;;;;;;5032602;28;20473;-64
2023/07/27 01:31:42;;;;;;;2.00;1.80;;;14.30;99.90;;;;;;5032367;28;20429;-64
2023/07/27 01:34:23;;;;;;;2.90;1.90;;;14.30;99.90;;;;;;5031954;28;20418;-63
2023/07/27 01:36:55;;;;;;;2.40;2.10;;;14.20;99.90;;;;;;5032369;28;20415;-64
2023/07/27 01:39:23;;;;;;;4.50;2.30;;;14.20;99.90;;;;;;5032464;28;20926;-64
2023/07/27 01:41:51;;;;;;;3.53;2.10;;;14.10;99.90;;;;;;5032264;28;20796;-63
2023/07/27 01:44:17;;;;;;;3.00;2.20;;;14.10;99.90;;;;;;5032235;28;20506;-64
2023/07/27 01:46:43;;;;;;;3.60;2.17;;;14.10;99.90;;;;;;5032003;28;20422;-63
2023/07/27 01:49:10;;;;;;;6.20;2.57;;;14.00;99.90;;;;;;5031940;28;20454;-63
2023/07/27 01:51:37;;;;;;;4.40;2.40;;;14.00;99.90;;;;;;5031816;28;20435;-64
2023/07/27 01:54:04;;;;;;;8.17;2.50;;;13.90;99.90;;;;;;5031667;28;20430;-65
2023/07/27 01:56:30;;;;;;;3.60;2.57;;;14.00;99.90;;;;;;5031756;28;20443;-64
2023/07/27 01:58:57;;;;;;;3.10;2.10;;;13.90;99.90;;;;;;5030747;28;20518;-63
2023/07/27 02:01:23;;;;;;;3.00;2.50;;;14.00;99.90;;;;;;5031378;28;20447;-63
2023/07/27 02:03:50;;;;;;;2.57;1.70;;;13.90;99.90;;;;;;5031795;28;20426;-63
2023/07/27 02:06:15;;;;;;;2.17;1.93;;;13.90;99.90;;;;;;5031679;28;20225;-64
2023/07/27 02:08:41;;;;;;;2.63;1.67;;;13.80;99.90;;;;;;5032092;28;20426;-63
2023/07/27 02:11:10;;;;;;;2.50;1.80;;;13.80;99.90;;;;;;5032382;28;20243;-64
2023/07/27 02:13:45;;;;;;;3.43;2.30;;;13.80;99.90;;;;;;5032398;28;20208;-63
2023/07/27 02:16:19;;;;;;;4.87;2.37;;;13.90;99.90;;;;;;5032084;28;20402;-63
2023/07/27 02:18:46;;;;;;;6.07;2.47;;;13.90;99.90;;;;;;5032105;28;20784;-63
2023/07/27 02:21:13;;;;;;;2.70;1.80;;;13.90;99.90;;;;;;5031448;28;20439;-63
2023/07/27 02:23:39;;;;;;;11.70;2.33;;;13.90;99.90;;;;;;5031466;28;20510;-63
2023/07/27 02:26:05;;;;;;;4.63;1.93;;;14.00;99.90;;;;;;5031370;28;20427;-65
2023/07/27 02:28:33;;;;;;;5.73;2.60;;;13.90;99.90;;;;;;5031188;28;20502;-64
2023/07/27 02:30:58;;;;;;;4.27;2.67;;;13.90;99.90;;;;;;5031068;28;20730;-64
2023/07/27 02:33:24;;;;;;;2.40;2.00;;;13.90;99.90;;;;;;5031208;28;20509;-64
2023/07/27 02:35:49;;;;;;;3.50;2.23;;;13.80;99.90;;;;;;5031353;28;20569;-63
2023/07/27 02:38:15;;;;;;;3.00;1.73;;;13.80;99.90;;;;;;5031146;28;20188;-64
2023/07/27 02:40:42;;;;;;;4.67;2.53;;;13.90;99.90;;;;;;5030784;28;20201;-64
2023/07/27 02:43:07;;;;;;;2.73;2.37;;;14.00;99.90;;;;;;5031104;28;20620;-63
2023/07/27 02:45:33;;;;;;;2.30;2.07;;;14.00;99.90;;;;;;5031544;28;20491;-63
2023/07/27 02:47:59;;;;;;;2.93;2.03;;;14.10;99.90;;;;;;5031104;28;20195;-64
2023/07/27 02:50:24;;;;;;;3.17;1.93;;;14.10;99.90;;;;;;5030873;28;20684;-62
2023/07/27 02:52:50;;;;;;;4.17;1.97;;;14.10;99.90;;;;;;5031042;28;20211;-63
2023/07/27 02:55:15;;;;;;;4.37;2.10;;;14.10;99.90;;;;;;5031216;28;20569;-62
2023/07/27 02:57:41;;;;;;;2.43;2.10;;;14.20;99.90;;;;;;5030985;28;20172;-62
2023/07/27 03:00:09;;;;;;;4.93;2.37;;;14.20;99.90;;;;;;5030586;28;20551;-62
2023/07/27 03:02:34;;;;;;;3.03;2.70;;;14.20;99.90;;;;;;5030301;28;20697;-62
2023/07/27 03:05:02;;;;;;;6.63;1.83;;;14.30;99.90;;;;;;5030711;28;20522;-63
2023/07/27 03:07:27;;;;;;;2.97;1.67;;;14.40;99.90;;;;;;5029948;28;20589;-62
2023/07/27 03:09:53;;;;;;;2.50;2.00;;;14.40;99.90;;;;;;5029782;28;20443;-62
2023/07/27 03:12:18;;;;;;;2.23;1.90;;;14.40;99.90;;;;;;5029614;28;20208;-62
2023/07/27 03:14:44;;;;;;;3.90;1.83;;;14.40;99.90;;;;;;5029790;28;20216;-62
2023/07/27 03:17:09;;;;;;;3.30;2.53;;;14.40;99.90;;;;;;5029841;28;20185;-63
2023/07/27 03:19:35;;;;;;;2.80;2.17;;;14.40;99.90;;;;;;5029787;28;20219;-62
2023/07/27 03:22:00;;;;;;;2.63;2.10;;;14.40;99.90;;;;;;5029677;28;20196;-64
2023/07/27 03:24:26;;;;;;;2.70;2.07;;;14.50;99.90;;;;;;5028191;28;20192;-63
2023/07/27 03:26:52;;;;;;;3.33;1.90;;;14.50;99.90;;;;;;5029777;28;20189;-62
2023/07/27 03:29:18;;;;;;;3.10;2.30;;;14.50;99.90;;;;;;5029463;28;20669;-62
2023/07/27 03:31:43;;;;;;;2.63;2.20;;;14.50;99.90;;;;;;5029141;28;20451;-62
2023/07/27 03:34:09;;;;;;;3.20;2.27;;;14.50;99.90;;;;;;5029276;28;20173;-62
2023/07/27 03:36:35;;;;;;;3.57;2.47;;;14.50;99.90;;;;;;5029638;28;20181;-62
2023/07/27 03:39:00;;;;;;;2.20;1.90;;;14.60;99.90;;;;;;5029300;28;20535;-63
2023/07/27 03:41:26;;;;;;;7.30;3.27;;;14.50;99.90;;;;;;5029345;28;20205;-63
2023/07/27 03:43:52;;;;;;;2.27;1.80;;;14.60;99.90;;;;;;5029218;28;20188;-62
2023/07/27 03:46:17;;;;;;;4.27;2.30;;;14.60;99.90;;;;;;5028966;28;20184;-63
2023/07/27 03:48:45;;;;;;;3.03;2.37;;;14.60;99.90;;;;;;5028979;28;20682;-63
2023/07/27 03:51:11;;;;;;;2.30;2.10;;;14.60;99.90;;;;;;5029077;28;20200;-62
2023/07/27 03:53:38;;;;;;;3.67;2.10;;;14.60;99.90;;;;;;5028912;28;20817;-62
2023/07/27 03:56:04;;;;;;;5.20;2.00;;;14.60;99.90;;;;;;5028999;28;20176;-62
2023/07/27 03:58:30;;;;;;;2.67;2.20;;;14.60;99.90;;;;;;5029432;28;20412;-62
2023/07/27 04:00:56;;;;;;;2.03;1.70;;;14.70;99.90;;;;;;5028860;28;20561;-63
2023/07/27 04:03:22;;;;;;;2.90;2.03;;;14.60;99.90;;;;;;5028845;28;20435;-62
2023/07/27 04:05:47;;;;;;;3.10;2.40;;;14.70;99.90;;;;;;5028827;28;20430;-62
2023/07/27 04:08:13;;;;;;;5.03;2.33;;;14.70;99.90;;;;;;5028755;28;20557;-62
2023/07/27 04:10:42;;;;;;;2.03;1.80;;;14.70;99.90;;;;;;5028659;28;20257;-62
2023/07/27 04:13:07;;;;;;;4.53;2.20;;;14.80;99.90;;;;;;5028857;28;20241;-62
2023/07/27 04:15:34;;;;;;;3.50;1.87;;;14.80;99.90;;;;;;5028637;28;20458;-63
2023/07/27 04:17:59;;;;;;;3.23;2.10;;;14.80;99.90;;;;;;5028614;28;20263;-62
2023/07/27 04:20:25;;;;;;;3.70;2.50;;;14.70;99.90;;;;;;5028462;28;20530;-62
2023/07/27 04:22:50;;;;;;;2.57;1.73;;;14.80;99.90;;;;;;5028047;28;20212;-62
2023/07/27 04:25:16;;;;;;;2.60;1.90;;;14.80;99.90;;;;;;5028607;28;20790;-62
2023/07/27 04:27:42;;;;;;;2.40;1.70;;;14.90;99.90;;;;;;5028461;28;20316;-62
2023/07/27 04:30:07;;;;;;;4.67;1.97;;;14.80;99.90;;;;;;5028487;28;20201;-62
2023/07/27 04:32:33;;;;;;;4.17;1.70;;;14.80;99.90;;;;;;5028362;28;20211;-62
2023/07/27 04:34:58;;;;;;;4.23;1.80;;;14.90;99.90;;;;;;5028475;28;20729;-64
2023/07/27 04:37:24;;;;;;;2.40;2.10;;;14.90;99.90;;;;;;5028074;28;20185;-62
2023/07/27 04:39:50;;;;;;;4.80;2.27;;;14.90;99.90;;;;;;5028401;28;20212;-61
2023/07/27 04:42:18;;;;;;;3.37;2.43;;;14.90;99.90;;;;;;5028608;28;20196;-63
2023/07/27 04:44:44;;;;;;;5.50;1.90;;;14.90;99.90;;;;;;5028336;28;20231;-61
2023/07/27 04:47:09;;;;;;;2.63;2.37;;;15.00;99.90;;;;;;5028171;28;20938;-62
2023/07/27 04:49:35;;;;;;;3.77;2.17;;;15.00;99.90;;;;;;5027917;28;20390;-62
2023/07/27 04:52:01;;;;;;;2.27;1.90;;;15.10;99.90;;;;;;5027065;28;20220;-61
2023/07/27 04:54:26;;;;;;;3.73;2.00;;;15.10;99.90;;;;;;5026714;28;20539;-63
2023/07/27 04:56:52;;;;;;;2.77;2.00;;;15.10;99.90;;;;;;5027217;28;20177;-61
2023/07/27 04:59:17;;;;;;;2.70;2.00;;;15.00;99.90;;;;;;5027055;28;20238;-64
2023/07/27 05:01:43;;;;;;;4.07;2.10;;;15.10;99.90;;;;;;5026864;28;20714;-62
2023/07/27 05:04:08;;;;;;;2.10;1.73;;;15.10;99.90;;;;;;5026761;28;20621;-62
2023/07/27 05:06:38;;;;;;;4.57;2.27;;;15.10;99.90;;;;;;5026624;28;20188;-62
2023/07/27 05:09:03;;;;;;;2.47;2.27;;;15.10;99.90;;;;;;5026550;28;20742;-64
2023/07/27 05:11:29;;;;;;;2.43;2.20;;;15.20;99.90;;;;;;5027080;28;20440;-64
2023/07/27 05:13:55;;;;;;;4.63;2.10;;;15.20;99.90;;;;;;5027234;28;20310;-62
2023/07/27 05:16:21;;;;;;;3.20;1.70;;;15.20;99.90;;;;;;5027340;28;20454;-62
2023/07/27 05:18:46;;;;;;;2.70;1.77;;;15.20;99.90;;;;;;5027384;28;20182;-61
2023/07/27 05:21:12;;;;;;;2.27;1.93;;;15.30;99.90;;;;;;5027354;28;20217;-61
2023/07/27 05:23:37;;;;;;;1.70;1.57;;;15.30;99.90;;;;;;5027492;28;20220;-64
2023/07/27 05:26:03;;;;;;;3.23;1.70;;;15.30;99.90;;;;;;5027502;28;20612;-62
2023/07/27 05:28:29;;;;;;;2.70;1.73;;;15.20;99.90;;;;;;5027456;28;20192;-61
2023/07/27 05:30:54;;;;;;;2.40;2.20;;;15.30;99.90;;;;;;5027347;28;20439;-61
2023/07/27 05:33:21;;;;;;;2.27;1.97;;;15.40;99.90;;;;;;5027609;28;20216;-61
2023/07/27 05:35:48;;;;;;;1.80;1.70;;;15.40;99.90;;;;;;5030968;28;20694;-61
2023/07/27 05:38:15;;;;;;;3.07;1.90;;;15.40;99.90;;;;;;5031001;28;20817;-61
2023/07/27 05:40:40;;;;;;;2.93;1.67;;;15.40;99.90;;;;;;5030911;28;20446;-61
2023/07/27 05:43:06;;;;;;;3.73;1.90;;;15.50;99.90;;;;;;5031009;28;20910;-61
2023/07/27 05:45:31;;;;;;;3.57;2.00;;;15.50;99.90;;;;;;5030894;28;20276;-61
2023/07/27 05:47:57;;;;;;;2.97;2.30;;;15.60;99.90;;;;;;5030784;28;20595;-61
2023/07/27 05:50:23;;;;;;;8.80;1.80;;;15.60;99.90;;;;;;5030691;28;20240;-61
2023/07/27 05:52:48;;;;;;;7.70;2.20;;;15.70;99.90;;;;;;5030559;28;20217;-61
2023/07/27 05:55:14;;;;;;;3.77;1.70;;;15.70;99.90;;;;;;5030706;28;20468;-61
2023/07/27 05:57:43;;;;;;;2.93;1.97;;;15.70;99.90;;;;;;5030579;28;20554;-61
2023/07/27 06:00:09;;;;;;;3.10;2.10;;;15.70;99.90;;;;;;5030002;28;20203;-62
2023/07/27 06:02:35;;;;;;;4.43;2.20;;;15.80;99.90;;;;;;5030396;28;20454;-63
2023/07/27 06:05:01;;;;;;;1.93;1.70;;;15.80;99.90;;;;;;5029807;28;20435;-61
2023/07/27 06:07:27;;;;;;;2.80;1.70;;;15.90;99.90;;;;;;5029918;28;20910;-61
2023/07/27 06:09:52;;;;;;;9.20;2.30;;;15.90;99.90;;;;;;5029819;28;20436;-61
2023/07/27 06:12:18;;;;;;;2.87;1.80;;;15.90;99.90;;;;;;5029774;28;20263;-61
2023/07/27 06:14:44;;;;;;;3.07;2.00;;;16.00;99.90;;;;;;5029713;28;20215;-61
2023/07/27 06:17:10;;;;;;;3.80;2.27;;;16.00;99.90;;;;;;5029505;28;20177;-62
2023/07/27 06:19:38;;;;;;;4.77;1.70;;;16.10;99.90;;;;;;5029114;28;20194;-62
2023/07/27 06:22:04;;;;;;;2.97;1.57;;;16.10;99.90;;;;;;5029354;28;20182;-62
2023/07/27 06:24:30;;;;;;;5.00;2.43;;;16.20;99.90;;;;;;5029315;28;20457;-61
2023/07/27 06:26:56;;;;;;;3.40;2.00;;;16.20;99.90;;;;;;5029118;28;20194;-62
2023/07/27 06:29:21;;;;;;;2.67;1.77;;;16.40;99.90;;;;;;5029327;28;20484;-61
2023/07/27 06:31:47;;;;;;;15.23;3.43;;;16.50;99.90;;;;;;5029330;28;20307;-61
2023/07/27 06:34:12;;;;;;;33.90;4.23;;;16.50;99.90;;;;;;5029021;28;20183;-63
2023/07/27 06:36:38;;;;;;;5.10;2.20;;;16.70;99.90;;;;;;5028963;28;20281;-65
2023/07/27 06:39:05;;;;;;;3.13;1.73;;;16.90;99.90;;;;;;5029112;28;20548;-61
2023/07/27 06:41:30;;;;;;;3.43;1.73;;;17.00;99.90;;;;;;5029006;28;20608;-62
2023/07/27 06:43:56;;;;;;;3.20;2.20;;;17.10;99.90;;;;;;5029039;28;20436;-61
2023/07/27 06:46:21;;;;;;;6.90;2.53;;;17.20;99.90;;;;;;5028266;28;20628;-64
2023/07/27 06:48:47;;;;;;;2.53;1.70;;;17.20;99.90;;;;;;5029099;28;20191;-63
2023/07/27 06:51:13;;;;;;;6.77;2.67;;;17.20;99.90;;;;;;5028661;28;20621;-63
2023/07/27 06:53:39;;;;;;;15.73;3.17;;;17.20;99.90;;;;;;5028836;28;20226;-64
2023/07/27 06:56:04;;;;;;;6.60;1.97;;;17.30;99.90;;;;;;5028753;28;20424;-63
2023/07/27 06:58:30;;;;;;;4.00;1.83;;;17.30;99.90;;;;;;5028902;28;20213;-64
2023/07/27 07:00:56;;;;;;;3.07;1.70;;;17.40;99.90;;;;;;5028859;28;20636;-64
2023/07/27 07:03:22;;;;;;;4.57;2.13;;;17.50;99.90;;;;;;5028554;28;20418;-63
2023/07/27 07:05:48;;;;;;;2.63;1.80;;;17.60;99.90;;;;;;5028766;28;20189;-63
2023/07/27 07:08:13;;;;;;;2.83;2.10;;;17.60;99.90;;;;;;5029129;28;20429;-64
2023/07/27 07:10:39;;;;;;;9.33;2.10;;;17.70;99.90;;;;;;5028971;28;20683;-64
2023/07/27 07:13:04;;;;;;;3.63;2.17;;;17.60;99.90;;;;;;5028858;28;20238;-63
2023/07/27 07:15:30;;;;;;;4.30;1.97;;;17.70;99.90;;;;;;5029025;28;20186;-63
2023/07/27 07:17:56;;;;;;;2.70;2.10;;;17.70;99.90;;;;;;5029135;28;20232;-63
2023/07/27 07:20:21;;;;;;;8.67;2.30;;;17.70;99.90;;;;;;5028960;28;20777;-63
2023/07/27 07:22:47;;;;;;;5.07;2.23;;;17.70;99.90;;;;;;5029061;28;20182;-63
2023/07/27 07:25:13;;;;;;;4.17;2.10;;;17.70;99.90;;;;;;5028613;28;20571;-62
2023/07/27 07:27:38;;;;;;;3.20;2.30;;;17.80;99.90;;;;;;5028860;28;20567;-63
2023/07/27 07:30:04;;;;;;;3.97;2.20;;;17.90;99.90;;;;;;5028422;28;20209;-63
2023/07/27 07:32:31;;;;;;;8.73;2.30;;;18.00;99.90;;;;;;5028467;28;20219;-63
2023/07/27 07:34:57;;;;;;;2.60;2.00;;;18.10;99.90;;;;;;5028471;28;20417;-63
2023/07/27 07:37:23;;;;;;;3.07;2.00;;;18.10;99.90;;;;;;5028971;28;20464;-63
2023/07/27 07:39:49;;;;;;;3.20;1.67;;;18.20;99.90;;;;;;5028151;28;20526;-63
2023/07/27 07:42:14;;;;;;;2.57;1.70;;;18.30;99.90;;;;;;5028608;28;21300;-63
2023/07/27 07:44:40;;;;;;;3.93;2.03;;;18.30;99.90;;;;;;5028533;28;20184;-63
2023/07/27 07:47:06;;;;;;;6.03;2.07;;;18.20;99.90;;;;;;5028359;28;20188;-63
2023/07/27 07:49:31;;;;;;;5.60;2.33;;;18.20;99.90;;;;;;5028151;28;20671;-63
2023/07/27 07:51:57;;;;;;;1.57;1.47;;;18.30;99.90;;;;;;5026883;28;20192;-63
2023/07/27 07:54:23;;;;;;;10.10;2.23;;;18.20;99.90;;;;;;5028346;28;20186;-63
2023/07/27 07:56:48;;;;;;;3.00;1.87;;;18.20;99.90;;;;;;5027602;28;20230;-63
2023/07/27 07:59:15;;;;;;;5.63;1.77;;;18.10;99.90;;;;;;5027730;28;20194;-63
2023/07/27 08:01:41;;;;;;;5.30;1.90;;;18.10;99.90;;;;;;5027537;28;20698;-63
2023/07/27 08:04:07;;;;;;;2.83;1.90;;;18.20;99.90;;;;;;5027537;28;20420;-63
2023/07/27 08:06:33;;;;;;;4.33;1.90;;;18.20;99.90;;;;;;5026430;28;20420;-63
2023/07/27 08:08:59;;;;;;;6.63;2.37;;;18.30;99.90;;;;;;5027848;28;20928;-63
2023/07/27 08:11:24;;;;;;;8.13;2.30;;;18.30;99.90;;;;;;5027637;28;20201;-63
2023/07/27 08:13:50;;;;;;;1.60;1.50;;;18.40;99.90;;;;;;5027747;28;20348;-63
2023/07/27 08:16:16;;;;;;;4.30;1.77;;;18.40;99.90;;;;;;5027868;28;20181;-63
2023/07/27 08:18:42;;;;;;;5.93;2.10;;;18.60;99.90;;;;;;5027751;28;20191;-63
2023/07/27 08:21:08;;;;;;;2.13;1.60;;;18.50;99.90;;;;;;5028018;28;20443;-63
2023/07/27 08:23:34;;;;;;;3.93;1.77;;;18.60;99.90;;;;;;5027981;28;20197;-63
2023/07/27 08:26:00;;;;;;;3.83;1.67;;;18.70;99.90;;;;;;5027809;28;20426;-64
2023/07/27 08:28:26;;;;;;;4.17;1.70;;;18.90;99.90;;;;;;5027785;28;20200;-64
2023/07/27 08:30:52;;;;;;;2.47;2.10;;;19.00;99.90;;;;;;5027786;28;20862;-63
2023/07/27 08:33:19;;;;;;;3.30;1.67;;;19.00;99.90;;;;;;5027679;28;20462;-63
2023/07/27 08:35:46;;;;;;;3.10;1.70;;;19.20;99.90;;;;;;5027096;28;20272;-63
2023/07/27 08:38:11;;;;;;;5.47;2.63;;;19.30;99.90;;;;;;5027460;28;20947;-63
2023/07/27 08:40:37;;;;;;;2.90;1.63;;;19.10;99.90;;;;;;5027280;28;20581;-63
2023/07/27 08:43:08;;;;;;;3.70;1.77;;;19.10;99.90;;;;;;5027790;28;20184;-63
2023/07/27 08:45:35;;;;;;;2.20;1.67;;;19.10;99.90;;;;;;5028051;28;20184;-63
2023/07/27 08:48:02;;;;;;;5.17;3.00;;;18.90;99.90;;;;;;5027735;28;20922;-63
2023/07/27 08:50:29;;;;;;;2.30;1.70;;;18.90;99.90;;;;;;5027776;28;20466;-64
2023/07/27 08:52:55;;;;;;;4.40;2.50;;;18.90;99.90;;;;;;5027520;28;20478;-63
2023/07/27 08:55:21;;;;;;;4.67;2.83;;;19.00;99.90;;;;;;5027920;28;20423;-64
2023/07/27 08:57:46;;;;;;;18.40;2.97;;;19.00;99.90;;;;;;5027440;28;20797;-63
2023/07/27 09:00:13;;;;;;;14.67;2.53;;;19.00;99.90;;;;;;5026965;28;20277;-63
2023/07/27 09:02:41;;;;;;;11.27;2.37;;;19.10;99.90;;;;;;5027209;28;20200;-63
2023/07/27 09:05:09;;;;;;;3.80;1.83;;;19.20;99.90;;;;;;5027281;28;20418;-63
2023/07/27 09:07:34;;;;;;;17.93;5.67;;;19.20;99.90;;;;;;5027859;28;20821;-63
2023/07/27 09:10:09;;;;;;;10.40;3.37;;;19.10;99.90;;;;;;5030752;28;20435;-64
2023/07/27 09:12:35;;;;;;;3.57;1.40;;;19.10;99.90;;;;;;5031521;28;20251;-63
2023/07/27 09:15:10;;;;;;;2.00;1.30;;;18.90;99.90;;;;;;5031132;28;20425;-63
2023/07/27 09:17:36;;;;;;;3.57;1.60;;;18.80;99.90;;;;;;5031398;28;20405;-64
2023/07/27 09:20:02;;;;;;;4.93;1.30;;;18.80;99.90;;;;;;5030652;28;20438;-63
2023/07/27 09:22:28;;;;;;;3.77;2.03;;;18.70;99.90;;;;;;5030419;28;20245;-63
2023/07/27 09:24:56;;;;;;;17.13;2.67;;;18.80;99.90;;;;;;5030683;28;20822;-64
2023/07/27 09:27:22;;;;;;;5.90;1.83;;;18.90;99.90;;;;;;5030887;28;20191;-63
2023/07/27 09:29:57;;;;;;;11.53;1.63;;;18.90;99.90;;;;;;5030431;28;20441;-63
2023/07/27 09:32:23;;;;;;;1.60;1.50;;;18.90;99.90;;;;;;5030599;28;20210;-63
2023/07/27 09:34:57;;;;;;;5.43;1.30;;;19.20;99.90;;;;;;5030795;28;20507;-63
2023/07/27 09:37:23;;;;;;;3.80;1.40;;;19.20;99.90;;;;;;5030413;28;20224;-63
2023/07/27 09:39:48;;;;;;;4.70;1.57;;;19.40;99.90;;;;;;5030505;28;20441;-63
2023/07/27 09:42:15;;;;;;;6.50;1.53;;;19.40;99.90;;;;;;5030449;28;20415;-64
2023/07/27 09:44:52;;;;;;;3.00;1.80;;;19.40;99.90;;;;;;5028628;28;20254;-63
2023/07/27 09:47:20;;;;;;;4.83;2.00;;;19.30;99.90;;;;;;5030519;28;20498;-63
2023/07/27 09:49:49;;;;;;;3.63;1.63;;;19.20;99.90;;;;;;5030333;28;20455;-63
2023/07/27 09:52:17;;;;;;;4.03;1.80;;;19.10;99.90;;;;;;5030455;28;20975;-63
2023/07/27 09:54:46;;;;;;;4.07;2.00;;;19.20;99.90;;;;;;5030674;28;21183;-64
2023/07/27 09:57:12;;;;;;;6.80;1.60;;;19.00;99.90;;;;;;5030490;28;20505;-64
2023/07/27 09:59:38;;;;;;;4.50;1.57;;;19.00;99.90;;;;;;5030406;28;20451;-63
2023/07/27 10:02:03;;;;;;;18.93;2.33;;;18.90;99.90;;;;;;5030675;28;20188;-64
2023/07/27 10:04:29;;;;;;;2.60;1.73;;;18.80;99.90;;;;;;5029570;28;20385;-63
2023/07/27 10:06:55;;;;;;;8.10;1.80;;;18.70;99.90;;;;;;5029797;28;20195;-63
2023/07/27 10:09:22;;;;;;;4.97;1.80;;;18.80;99.90;;;;;;5030233;28;20318;-62
2023/07/27 10:11:59;;;;;;;5.53;2.20;;;18.80;99.90;;;;;;5030200;28;20434;-63
2023/07/27 10:14:26;;;;;;;8.53;1.93;;;18.80;99.90;;;;;;5030299;28;20762;-62
2023/07/27 10:17:07;;;;;;;7.87;2.13;;;18.80;99.90;;;;;;5029831;28;20705;-63
2023/07/27 10:19:43;;;;;;;2.50;1.60;;;18.80;99.90;;;;;;5030511;28;20843;-63
2023/07/27 10:22:14;;;;;;;2.03;1.57;;;18.70;99.90;;;;;;5029018;28;20417;-63
2023/07/27 10:24:48;;;;;;;5.37;1.97;;;18.90;99.90;;;;;;5029622;28;20414;-63
2023/07/27 10:27:14;;;;;;;4.00;1.60;;;18.90;99.90;;;;;;5029480;28;20410;-63
2023/07/27 10:29:46;;;;;;;6.50;1.63;;;18.90;99.90;;;;;;5029499;28;20418;-64
2023/07/27 10:32:12;;;;;;;11.00;3.27;;;19.00;99.90;;;;;;5029806;28;20583;-63
2023/07/27 10:34:38;;;;;;;4.00;2.30;;;19.00;99.90;;;;;;5029439;28;20426;-63
2023/07/27 10:37:06;;;;;;;6.80;2.07;;;19.00;99.90;;;;;;5029402;28;20416;-63
2023/07/27 10:39:44;;;;;;;3.43;2.13;;;19.00;99.90;;;;;;5029544;28;20498;-63
2023/07/27 10:42:33;;;;;;;2.33;1.67;;;18.90;99.90;;;;;;5028151;28;20426;-63
2023/07/27 10:44:59;;;;;;;4.40;2.00;;;18.70;99.90;;;;;;5029702;28;20423;-63
2023/07/27 10:47:32;;;;;;;4.13;2.00;;;18.70;99.90;;;;;;5029859;28;20427;-63
2023/07/27 10:49:59;;;;;;;4.13;1.90;;;18.70;99.90;;;;;;5029926;28;20223;-63
2023/07/27 10:52:27;;;;;;;3.60;2.13;;;18.70;99.90;;;;;;5030233;28;20565;-63
2023/07/27 10:54:54;;;;;;;3.43;1.73;;;18.70;99.90;;;;;;5030189;28;20421;-63
2023/07/27 10:57:20;;;;;;;1.57;1.47;;;18.60;99.90;;;;;;5029893;28;20504;-63
2023/07/27 10:59:48;;;;;;;3.03;2.00;;;18.90;99.90;;;;;;5029816;28;20439;-64
2023/07/27 11:02:20;;;;;;;3.40;2.07;;;19.10;99.90;;;;;;5029939;28;20427;-63
2023/07/27 11:04:48;;;;;;;2.10;1.70;;;19.20;99.90;;;;;;5030303;28;20450;-63
2023/07/27 11:07:25;;;;;;;6.47;1.77;;;19.40;99.90;;;;;;5030030;28;20427;-63
2023/07/27 11:09:50;;;;;;;3.80;1.70;;;19.20;99.90;;;;;;5029720;28;20984;-63
2023/07/27 11:12:16;;;;;;;2.60;1.40;;;19.40;99.90;;;;;;5029508;28;20463;-63
2023/07/27 11:14:42;;;;;;;4.40;1.83;;;19.50;99.90;;;;;;5029404;28;20549;-63
2023/07/27 11:17:08;;;;;;;2.03;1.60;;;19.60;99.90;;;;;;5029634;28;20214;-63
2023/07/27 11:19:34;;;;;;;2.60;1.87;;;19.90;99.90;;;;;;5027569;28;20184;-63
2023/07/27 11:22:00;;;;;;;4.20;1.90;;;20.70;99.90;;;;;;5029503;28;20411;-63
2023/07/27 11:24:26;;;;;;;2.30;2.10;;;20.60;99.90;;;;;;5029025;28;20857;-65
2023/07/27 11:26:52;;;;;;;4.87;2.23;;;20.40;99.90;;;;;;5028974;28;20180;-63
2023/07/27 11:29:17;;;;;;;2.27;2.07;;;20.30;99.90;;;;;;5028957;28;20465;-63
2023/07/27 11:32:03;;;;;;;4.50;1.70;;;20.40;99.90;;;;;;5028626;28;20266;-63
2023/07/27 11:34:29;;;;;;;6.50;2.57;;;20.50;99.90;;;;;;5028751;28;20242;-64
2023/07/27 11:36:57;;;;;;;3.87;2.27;;;20.70;99.90;;;;;;5028486;28;20447;-63
2023/07/27 11:39:24;;;;;;;5.00;1.80;;;20.60;99.90;;;;;;5028112;28;20199;-63
2023/07/27 11:41:50;;;;;;;3.33;2.10;;;20.80;99.90;;;;;;5028624;28;20990;-63
2023/07/27 11:44:20;;;;;;;4.33;2.10;;;21.10;99.90;;;;;;5028321;28;20419;-63
2023/07/27 11:46:49;;;;;;;2.43;1.83;;;20.80;99.90;;;;;;5028646;28;21004;-63
2023/07/27 11:49:16;;;;;;;7.00;2.57;;;21.00;99.90;;;;;;5026925;28;20448;-64
2023/07/27 11:51:44;;;;;;;6.83;2.20;;;21.20;99.90;;;;;;5028485;28;20508;-63
2023/07/27 11:54:10;;;;;;;2.40;1.80;;;21.30;99.90;;;;;;5028568;28;20478;-63
2023/07/27 11:56:37;;;;;;;7.73;2.10;;;21.50;99.90;;;;;;5028441;28;20468;-63
2023/07/27 11:59:06;;;;;;;5.73;2.20;;;21.50;99.90;;;;;;5028319;28;20411;-63
2023/07/27 12:01:36;;;;;;;3.10;2.03;;;21.20;99.90;;;;;;5028420;28;20439;-63
2023/07/27 12:04:04;;;;;;;5.53;2.17;;;21.10;99.90;;;;;;5028007;28;20431;-63
2023/07/27 12:06:31;;;;;;;2.83;1.87;;;21.00;99.90;;;;;;5028225;28;20427;-63
2023/07/27 12:08:57;;;;;;;3.30;2.30;;;21.00;99.90;;;;;;5028065;28;20999;-63
2023/07/27 12:11:27;;;;;;;4.40;2.17;;;21.10;99.90;;;;;;5027668;28;20443;-64
2023/07/27 12:13:52;;;;;;;3.13;1.93;;;21.10;99.90;;;;;;5027687;28;21285;-63
2023/07/27 12:16:18;;;;;;;2.30;1.73;;;21.20;99.90;;;;;;5027624;28;20423;-63
2023/07/27 12:18:45;;;;;;;3.50;1.80;;;21.30;99.90;;;;;;5027732;28;20179;-63
2023/07/27 12:21:11;;;;;;;3.10;1.90;;;21.40;99.90;;;;;;5027698;28;20270;-63
2023/07/27 12:23:37;;;;;;;5.07;1.70;;;21.50;99.90;;;;;;5027633;28;20469;-63
2023/07/27 12:26:03;;;;;;;2.23;1.90;;;21.50;99.90;;;;;;5027754;28;20435;-63
2023/07/27 12:28:31;;;;;;;1.80;1.60;;;21.40;99.90;;;;;;5027389;28;20433;-64
2023/07/27 12:30:57;;;;;;;3.63;1.70;;;21.40;99.90;;;;;;5027945;28;20206;-63
2023/07/27 12:33:25;;;;;;;3.50;2.00;;;21.40;99.90;;;;;;5028105;28;20466;-63
2023/07/27 12:35:52;;;;;;;3.83;1.83;;;21.30;99.90;;;;;;5028093;28;20460;-63
2023/07/27 12:38:19;;;;;;;2.10;1.60;;;21.20;99.90;;;;;;5027808;28;20403;-63
2023/07/27 12:40:45;;;;;;;3.23;1.73;;;21.10;99.90;;;;;;5027763;28;20448;-63
2023/07/27 12:43:12;;;;;;;1.47;1.37;;;21.10;99.90;;;;;;5027350;28;20427;-63
2023/07/27 12:45:38;;;;;;;4.67;1.87;;;21.10;99.90;;;;;;5027822;28;20519;-63